Time;durP1;ratioP1;P1;durP2;ratioP2;P2;SDS_P1;SDS_P2;PMS_P1;PMS_P2;Temp;Humidity;BMP_temperature;BMP_pressure;BME280_temperature;BME280_humidity;BME280_pressure;Samples;Min_cycle;Max_cycle;Signal;HPM_P1;HPM_P2
2023/10/19 02:36:15;;;;;;;1999.90;999.90;;;;;;;;;;5284753;23;20297;-65
2023/10/19 02:39:07;;;;;;;1999.90;999.90;;;;;;;;;;4957734;28;20222;-66
2023/10/19 02:41:53;;;;;;;1999.90;999.90;;;;;;;;;;4945682;28;20215;-66
2023/10/19 02:44:38;;;;;;;1999.90;999.90;;;;;;;;;;4948778;28;20302;-66
2023/10/19 02:47:23;;;;;;;1999.90;999.90;;;;;;;;;;4934748;29;20243;-65
2023/10/19 02:50:11;;;;;;;1999.90;999.90;;;;;;;;;;4941641;29;20726;-66
2023/10/19 02:52:57;;;;;;;1999.90;999.90;;;;;;;;;;4928538;29;20261;-66
2023/10/19 02:55:42;;;;;;;1999.90;999.90;;;;;;;;;;4939274;29;20248;-66
2023/10/19 02:58:28;;;;;;;1999.90;999.90;;;;;;;;;;4948186;29;20718;-66
2023/10/19 03:01:17;;;;;;;1999.90;999.90;;;;;;;;;;4937501;29;20216;-65
2023/10/19 03:04:01;;;;;;;1999.90;999.90;;;;;;;;;;4935596;29;20627;-66
2023/10/19 03:06:47;;;;;;;1999.90;999.90;;;;;;;;;;4948343;29;20278;-65
2023/10/19 03:09:36;;;;;;;1999.90;999.90;;;;;;;;;;4952624;29;20351;-66
2023/10/19 03:12:25;;;;;;;1999.90;999.90;;;;;;;;;;4937166;29;20215;-66
2023/10/19 03:15:09;;;;;;;1999.90;999.90;;;;;;;;;;4942701;29;20235;-66
2023/10/19 03:17:54;;;;;;;1999.90;999.90;;;;;;;;;;4918075;29;20725;-65
2023/10/19 03:20:41;;;;;;;1999.90;999.90;;;;;;;;;;4943111;29;20338;-66
2023/10/19 03:23:28;;;;;;;1999.90;999.90;;;;;;;;;;4937383;29;20585;-65
2023/10/19 03:29:18;;;;;;;1999.90;999.90;;;;;;;;;;4936801;29;20253;-66
2023/10/19 03:32:03;;;;;;;1999.90;999.90;;;;;;;;;;4936799;29;20335;-66
2023/10/19 03:34:50;;;;;;;1999.90;999.90;;;;;;;;;;4936622;29;20339;-66
2023/10/19 03:37:36;;;;;;;1999.90;999.90;;;;;;;;;;4936893;29;20208;-65
2023/10/19 03:40:28;;;;;;;1999.90;999.90;;;;;;;;;;4936846;29;20731;-66
2023/10/19 03:43:21;;;;;;;1999.90;999.90;;;;;;;;;;4920148;29;20622;-66
2023/10/19 03:46:14;;;;;;;1999.90;999.90;;;;;;;;;;4917442;29;20228;-64
2023/10/19 03:49:04;;;;;;;1999.90;999.90;;;;;;;;;;4917543;29;20212;-66
2023/10/19 03:52:00;;;;;;;1999.90;999.90;;;;;;;;;;4917579;29;20212;-66
2023/10/19 03:54:46;;;;;;;1999.90;999.90;;;;;;;;;;4917558;29;20305;-65
2023/10/19 03:57:35;;;;;;;1999.90;999.90;;;;;;;;;;4917371;29;20206;-66
2023/10/19 04:00:24;;;;;;;1999.90;999.90;;;;;;;;;;4917535;29;20217;-66
2023/10/19 04:03:10;;;;;;;1999.90;999.90;;;;;;;;;;4917234;29;20317;-66
2023/10/19 04:05:55;;;;;;;1999.90;999.90;;;;;;;;;;4916890;29;20313;-66
2023/10/19 04:08:40;;;;;;;1999.90;999.90;;;;;;;;;;4927015;29;20221;-65
2023/10/19 04:11:32;;;;;;;1999.90;999.90;;;;;;;;;;4927846;29;20213;-66
2023/10/19 04:14:18;;;;;;;1999.90;999.90;;;;;;;;;;4904403;29;20221;-65
2023/10/19 04:17:05;;;;;;;1999.90;999.90;;;;;;;;;;4913977;29;20684;-66
2023/10/19 04:19:54;;;;;;;1999.90;999.90;;;;;;;;;;4916823;29;20922;-65
2023/10/19 04:22:39;;;;;;;1999.90;999.90;;;;;;;;;;4935976;29;20206;-66
2023/10/19 04:25:25;;;;;;;1999.90;999.90;;;;;;;;;;4923861;29;20252;-66
2023/10/19 04:28:11;;;;;;;1999.90;999.90;;;;;;;;;;4898529;29;20213;-64
2023/10/19 04:30:56;;;;;;;1999.90;999.90;;;;;;;;;;4934642;29;20216;-66
2023/10/19 04:33:47;;;;;;;1999.90;999.90;;;;;;;;;;4929051;29;20341;-66
2023/10/19 04:36:33;;;;;;;1999.90;999.90;;;;;;;;;;4940062;29;20358;-66
2023/10/19 04:39:19;;;;;;;1999.90;999.90;;;;;;;;;;4940458;29;20220;-66
2023/10/19 04:42:04;;;;;;;1999.90;999.90;;;;;;;;;;4938360;29;20435;-66
2023/10/19 04:44:49;;;;;;;1999.90;999.90;;;;;;;;;;4938838;29;20616;-66
2023/10/19 04:47:35;;;;;;;1999.90;999.90;;;;;;;;;;4939008;29;20284;-66
2023/10/19 04:50:22;;;;;;;1999.90;999.90;;;;;;;;;;4938088;29;20216;-66
2023/10/19 04:53:07;;;;;;;1999.90;999.90;;;;;;;;;;4931789;29;20224;-67
2023/10/19 04:55:52;;;;;;;1999.90;999.90;;;;;;;;;;4935421;29;20296;-66
2023/10/19 04:58:37;;;;;;;1999.90;999.90;;;;;;;;;;4940024;29;20227;-66
2023/10/19 05:01:22;;;;;;;1999.90;999.90;;;;;;;;;;4932503;29;20606;-66
2023/10/19 05:04:07;;;;;;;1999.90;999.90;;;;;;;;;;4933632;29;20629;-66
2023/10/19 05:06:53;;;;;;;1999.90;999.90;;;;;;;;;;4934741;29;20220;-66
2023/10/19 05:09:39;;;;;;;1999.90;999.90;;;;;;;;;;4942658;29;20223;-66
2023/10/19 05:12:24;;;;;;;1999.90;999.90;;;;;;;;;;4917740;29;21776;-66
2023/10/19 05:15:09;;;;;;;1999.90;999.90;;;;;;;;;;4935204;28;20231;-66
2023/10/19 05:17:55;;;;;;;1999.90;999.90;;;;;;;;;;4931664;29;20210;-66
2023/10/19 05:20:40;;;;;;;1999.90;999.90;;;;;;;;;;4932640;29;20779;-66
2023/10/19 05:23:27;;;;;;;1999.90;999.90;;;;;;;;;;4938473;29;20256;-66
2023/10/19 05:26:14;;;;;;;1999.90;999.90;;;;;;;;;;4940453;29;20323;-66
2023/10/19 05:28:59;;;;;;;1999.90;999.90;;;;;;;;;;4936383;29;20836;-66
2023/10/19 05:31:44;;;;;;;1999.90;999.90;;;;;;;;;;4936659;29;20336;-66
2023/10/19 05:34:32;;;;;;;1999.90;999.90;;;;;;;;;;4937861;29;20220;-66
2023/10/19 05:37:17;;;;;;;1999.90;999.90;;;;;;;;;;4918351;29;20235;-65
2023/10/19 05:40:04;;;;;;;1999.90;999.90;;;;;;;;;;4942573;29;20344;-66
2023/10/19 05:42:49;;;;;;;1999.90;999.90;;;;;;;;;;4932917;29;20235;-66
2023/10/19 05:45:36;;;;;;;1999.90;999.90;;;;;;;;;;4942519;28;20227;-66
2023/10/19 05:48:23;;;;;;;1999.90;999.90;;;;;;;;;;4932450;29;20215;-66
2023/10/19 05:51:07;;;;;;;1999.90;999.90;;;;;;;;;;4938329;29;20211;-66
2023/10/19 05:53:54;;;;;;;1999.90;999.90;;;;;;;;;;4934112;29;20716;-65
2023/10/19 05:56:40;;;;;;;1999.90;999.90;;;;;;;;;;4934005;29;20733;-66
2023/10/19 05:59:26;;;;;;;1999.90;999.90;;;;;;;;;;4933911;29;20404;-66
2023/10/19 06:02:11;;;;;;;1999.90;999.90;;;;;;;;;;4942427;29;20336;-65
2023/10/19 06:04:57;;;;;;;1999.90;999.90;;;;;;;;;;4934223;29;20719;-66
2023/10/19 06:07:41;;;;;;;1999.90;999.90;;;;;;;;;;4934361;29;20216;-66
2023/10/19 06:10:28;;;;;;;1999.90;999.90;;;;;;;;;;4937088;29;20224;-66
2023/10/19 06:13:15;;;;;;;1999.90;999.90;;;;;;;;;;4938056;29;20218;-66
2023/10/19 06:16:00;;;;;;;1999.90;999.90;;;;;;;;;;4935281;29;20299;-66
2023/10/19 06:18:45;;;;;;;1999.90;999.90;;;;;;;;;;4933565;29;20215;-67
2023/10/19 06:21:31;;;;;;;1999.90;999.90;;;;;;;;;;4942154;29;20216;-66
2023/10/19 06:24:16;;;;;;;1999.90;999.90;;;;;;;;;;4934338;29;20220;-66
2023/10/19 06:27:01;;;;;;;1999.90;999.90;;;;;;;;;;4934481;29;20213;-67
2023/10/19 06:29:47;;;;;;;1999.90;999.90;;;;;;;;;;4937956;29;20347;-67
2023/10/19 06:32:32;;;;;;;1999.90;999.90;;;;;;;;;;4941038;29;20704;-67
2023/10/19 06:35:17;;;;;;;1999.90;999.90;;;;;;;;;;4937744;29;20289;-67
2023/10/19 06:38:03;;;;;;;1999.90;999.90;;;;;;;;;;4937274;29;20232;-67
2023/10/19 06:40:48;;;;;;;1999.90;999.90;;;;;;;;;;4937772;29;20268;-68
2023/10/19 06:43:33;;;;;;;1999.90;999.90;;;;;;;;;;4937768;29;20257;-67
2023/10/19 06:46:21;;;;;;;1999.90;999.90;;;;;;;;;;4937322;29;20737;-67
2023/10/19 06:49:07;;;;;;;1999.90;999.90;;;;;;;;;;4937377;29;20220;-67
2023/10/19 06:51:53;;;;;;;1999.90;999.90;;;;;;;;;;4937602;29;20292;-67
2023/10/19 06:54:38;;;;;;;1999.90;999.90;;;;;;;;;;4937283;29;20219;-67
2023/10/19 06:57:23;;;;;;;1999.90;999.90;;;;;;;;;;4944540;29;20570;-67
2023/10/19 07:00:14;;;;;;;1999.90;999.90;;;;;;;;;;4940058;29;20223;-67
2023/10/19 07:03:01;;;;;;;1999.90;999.90;;;;;;;;;;4939400;29;20273;-67
2023/10/19 07:05:46;;;;;;;1999.90;999.90;;;;;;;;;;4937221;29;20248;-68
2023/10/19 07:08:31;;;;;;;1999.90;999.90;;;;;;;;;;4937167;29;20225;-67
2023/10/19 07:11:16;;;;;;;1999.90;999.90;;;;;;;;;;4937305;29;20287;-68
2023/10/19 07:14:02;;;;;;;1999.90;999.90;;;;;;;;;;4945114;29;20292;-67
2023/10/19 07:16:47;;;;;;;1999.90;999.90;;;;;;;;;;4937069;29;20228;-67
2023/10/19 07:19:33;;;;;;;1999.90;999.90;;;;;;;;;;4931094;29;20760;-67
2023/10/19 07:22:22;;;;;;;1999.90;999.90;;;;;;;;;;4944916;29;20220;-67
2023/10/19 07:25:08;;;;;;;1999.90;999.90;;;;;;;;;;4936810;29;20309;-67
2023/10/19 07:27:53;;;;;;;1999.90;999.90;;;;;;;;;;4936711;29;20254;-67
2023/10/19 07:30:40;;;;;;;1999.90;999.90;;;;;;;;;;4936839;29;20702;-67
2023/10/19 07:33:26;;;;;;;1999.90;999.90;;;;;;;;;;4936938;29;20288;-67
2023/10/19 07:36:14;;;;;;;1999.90;999.90;;;;;;;;;;4936408;29;20753;-68
2023/10/19 07:38:59;;;;;;;1999.90;999.90;;;;;;;;;;4935705;29;20709;-67
2023/10/19 07:41:44;;;;;;;1999.90;999.90;;;;;;;;;;4936704;29;20244;-67
2023/10/19 07:44:30;;;;;;;1999.90;999.90;;;;;;;;;;4930115;29;20225;-65
2023/10/19 07:47:15;;;;;;;1999.90;999.90;;;;;;;;;;4944678;29;20577;-67
2023/10/19 07:50:02;;;;;;;1999.90;999.90;;;;;;;;;;4940422;29;20709;-67
2023/10/19 07:52:50;;;;;;;1999.90;999.90;;;;;;;;;;4937542;29;20220;-67
2023/10/19 07:55:36;;;;;;;1999.90;999.90;;;;;;;;;;4942109;28;20260;-68
2023/10/19 07:58:20;;;;;;;1999.90;999.90;;;;;;;;;;4942180;29;20725;-68
2023/10/19 08:01:05;;;;;;;1999.90;999.90;;;;;;;;;;4943391;29;20585;-67
2023/10/19 08:03:51;;;;;;;1999.90;999.90;;;;;;;;;;4938772;29;20702;-66
2023/10/19 08:06:36;;;;;;;1999.90;999.90;;;;;;;;;;4940061;29;20279;-68
2023/10/19 08:09:23;;;;;;;1999.90;999.90;;;;;;;;;;4945354;29;20232;-67
2023/10/19 08:12:09;;;;;;;1999.90;999.90;;;;;;;;;;4939985;29;20205;-67
2023/10/19 08:14:55;;;;;;;1999.90;999.90;;;;;;;;;;4934783;29;20297;-67
2023/10/19 08:17:40;;;;;;;1999.90;999.90;;;;;;;;;;4935634;29;20597;-67
2023/10/19 08:20:30;;;;;;;1999.90;999.90;;;;;;;;;;4938004;29;20352;-67
2023/10/19 08:23:16;;;;;;;1999.90;999.90;;;;;;;;;;4936001;29;20237;-68
2023/10/19 08:26:05;;;;;;;1999.90;999.90;;;;;;;;;;4935788;29;20237;-67
2023/10/19 08:28:50;;;;;;;1999.90;999.90;;;;;;;;;;4935558;29;20246;-67
2023/10/19 08:31:35;;;;;;;1999.90;999.90;;;;;;;;;;4929817;29;20276;-68
2023/10/19 08:34:21;;;;;;;1999.90;999.90;;;;;;;;;;4935147;29;20209;-66
2023/10/19 08:37:06;;;;;;;1999.90;999.90;;;;;;;;;;4933241;29;20252;-67
2023/10/19 08:39:51;;;;;;;1999.90;999.90;;;;;;;;;;4935813;29;20341;-68
2023/10/19 08:42:37;;;;;;;1999.90;999.90;;;;;;;;;;4934794;29;20213;-67
2023/10/19 08:45:22;;;;;;;1999.90;999.90;;;;;;;;;;4943367;29;20250;-68
2023/10/19 08:48:08;;;;;;;1999.90;999.90;;;;;;;;;;4935537;29;20205;-68
2023/10/19 08:50:55;;;;;;;1999.90;999.90;;;;;;;;;;4937180;29;20220;-68
2023/10/19 08:53:40;;;;;;;1999.90;999.90;;;;;;;;;;4939569;29;20205;-68
2023/10/19 08:56:26;;;;;;;1999.90;999.90;;;;;;;;;;4916166;29;20233;-68
2023/10/19 08:59:12;;;;;;;1999.90;999.90;;;;;;;;;;4917810;29;20299;-69
2023/10/19 09:02:02;;;;;;;1999.90;999.90;;;;;;;;;;4934204;29;20620;-68
2023/10/19 09:04:48;;;;;;;1999.90;999.90;;;;;;;;;;4930267;29;20233;-68
2023/10/19 09:07:34;;;;;;;1999.90;999.90;;;;;;;;;;4935024;29;20265;-67
2023/10/19 09:10:19;;;;;;;1999.90;999.90;;;;;;;;;;4934259;29;20781;-68
2023/10/19 09:13:07;;;;;;;1999.90;999.90;;;;;;;;;;4935004;29;20213;-68
2023/10/19 09:16:05;;;;;;;1999.90;999.90;;;;;;;;;;4934845;29;20229;-67
2023/10/19 09:19:00;;;;;;;1999.90;999.90;;;;;;;;;;4934452;29;20224;-67
2023/10/19 09:21:46;;;;;;;1999.90;999.90;;;;;;;;;;4934859;29;20650;-68
2023/10/19 09:24:33;;;;;;;1999.90;999.90;;;;;;;;;;4926659;29;20217;-68
2023/10/19 09:27:18;;;;;;;1999.90;999.90;;;;;;;;;;4934123;29;20209;-66
2023/10/19 09:30:07;;;;;;;1999.90;999.90;;;;;;;;;;4934903;29;20213;-67
2023/10/19 09:32:55;;;;;;;1999.90;999.90;;;;;;;;;;4934152;29;20414;-67
2023/10/19 09:35:43;;;;;;;1999.90;999.90;;;;;;;;;;4928460;29;20320;-67
2023/10/19 09:38:28;;;;;;;1999.90;999.90;;;;;;;;;;4934207;29;20299;-67
2023/10/19 09:41:14;;;;;;;1999.90;999.90;;;;;;;;;;4934613;29;20733;-67
2023/10/19 09:44:09;;;;;;;1999.90;999.90;;;;;;;;;;4934766;29;20228;-67
2023/10/19 09:46:55;;;;;;;1999.90;999.90;;;;;;;;;;4935054;29;20326;-67
2023/10/19 09:49:43;;;;;;;1999.90;999.90;;;;;;;;;;4934135;29;20209;-67
2023/10/19 09:52:31;;;;;;;1999.90;999.90;;;;;;;;;;4932795;29;20297;-68
2023/10/19 09:55:22;;;;;;;1999.90;999.90;;;;;;;;;;4941317;29;20930;-67
2023/10/19 09:58:14;;;;;;;1999.90;999.90;;;;;;;;;;4933422;29;20322;-67
2023/10/19 10:00:59;;;;;;;1999.90;999.90;;;;;;;;;;4936390;29;20209;-68
2023/10/19 10:03:48;;;;;;;1999.90;999.90;;;;;;;;;;4938454;29;20237;-67
2023/10/19 10:06:59;;;;;;;1999.90;999.90;;;;;;;;;;4938105;29;20221;-68
2023/10/19 10:09:46;;;;;;;1999.90;999.90;;;;;;;;;;4946601;29;20873;-67
2023/10/19 10:12:34;;;;;;;1999.90;999.90;;;;;;;;;;4938180;29;20702;-68
2023/10/19 10:15:39;;;;;;;1999.90;999.90;;;;;;;;;;4946069;28;20292;-68
2023/10/19 10:18:24;;;;;;;1999.90;999.90;;;;;;;;;;4946523;29;20841;-67
2023/10/19 10:21:12;;;;;;;1999.90;999.90;;;;;;;;;;4938356;29;20592;-68
2023/10/19 10:23:59;;;;;;;1999.90;999.90;;;;;;;;;;4937701;29;20213;-67
2023/10/19 10:27:03;;;;;;;1999.90;999.90;;;;;;;;;;4930687;29;20245;-66
2023/10/19 10:29:58;;;;;;;1999.90;999.90;;;;;;;;;;4932100;29;20216;-66
2023/10/19 10:32:44;;;;;;;1999.90;999.90;;;;;;;;;;4939901;29;20212;-67
2023/10/19 10:35:48;;;;;;;1999.90;999.90;;;;;;;;;;4937626;29;20396;-67
2023/10/19 10:38:35;;;;;;;1999.90;999.90;;;;;;;;;;4945411;29;20635;-66
2023/10/19 10:41:20;;;;;;;1999.90;999.90;;;;;;;;;;4937740;29;20224;-68
2023/10/19 10:44:07;;;;;;;1999.90;999.90;;;;;;;;;;4941604;29;20391;-68
2023/10/19 10:46:52;;;;;;;1999.90;999.90;;;;;;;;;;4936173;29;20597;-67
2023/10/19 10:49:50;;;;;;;1999.90;999.90;;;;;;;;;;4937243;29;20235;-68
2023/10/19 10:52:36;;;;;;;1999.90;999.90;;;;;;;;;;4935977;29;20935;-68
2023/10/19 10:55:21;;;;;;;1999.90;999.90;;;;;;;;;;4937526;29;20237;-68
2023/10/19 10:58:06;;;;;;;1999.90;999.90;;;;;;;;;;4937134;29;20225;-68
2023/10/19 11:00:54;;;;;;;1999.90;999.90;;;;;;;;;;4936665;29;20712;-68
2023/10/19 11:03:39;;;;;;;1999.90;999.90;;;;;;;;;;4937401;29;20578;-67
2023/10/19 11:06:24;;;;;;;1999.90;999.90;;;;;;;;;;4935765;29;20604;-68
2023/10/19 11:09:14;;;;;;;1999.90;999.90;;;;;;;;;;4936895;29;20215;-68
2023/10/19 11:12:11;;;;;;;1999.90;999.90;;;;;;;;;;4937253;29;20283;-68
2023/10/19 11:14:57;;;;;;;1999.90;999.90;;;;;;;;;;4930242;29;20438;-68
2023/10/19 11:17:47;;;;;;;1999.90;999.90;;;;;;;;;;4936767;29;20744;-68
2023/10/19 11:20:32;;;;;;;1999.90;999.90;;;;;;;;;;4937054;29;20221;-68
2023/10/19 11:23:17;;;;;;;1999.90;999.90;;;;;;;;;;4937048;29;20357;-68
2023/10/19 11:26:02;;;;;;;1999.90;999.90;;;;;;;;;;4936886;29;20232;-68
2023/10/19 11:28:50;;;;;;;1999.90;999.90;;;;;;;;;;4936966;29;20213;-67
2023/10/19 11:31:39;;;;;;;1999.90;999.90;;;;;;;;;;4944848;29;20212;-68
2023/10/19 11:34:25;;;;;;;1999.90;999.90;;;;;;;;;;4936724;29;20218;-68
2023/10/19 11:37:10;;;;;;;1999.90;999.90;;;;;;;;;;4936879;29;20209;-68
2023/10/19 11:39:55;;;;;;;1999.90;999.90;;;;;;;;;;4937021;29;20273;-68
2023/10/19 11:42:41;;;;;;;1999.90;999.90;;;;;;;;;;4936575;29;20213;-68
2023/10/19 11:45:26;;;;;;;1999.90;999.90;;;;;;;;;;4936486;29;20237;-67
2023/10/19 11:48:11;;;;;;;1999.90;999.90;;;;;;;;;;4936502;29;20345;-68
2023/10/19 11:50:58;;;;;;;1999.90;999.90;;;;;;;;;;4936056;29;20347;-68
2023/10/19 11:53:44;;;;;;;1999.90;999.90;;;;;;;;;;4936582;29;20225;-67
2023/10/19 11:56:29;;;;;;;1999.90;999.90;;;;;;;;;;4944535;28;20244;-67
2023/10/19 11:59:15;;;;;;;1999.90;999.90;;;;;;;;;;4935906;29;20785;-68
2023/10/19 12:02:03;;;;;;;1999.90;999.90;;;;;;;;;;4931014;29;20261;-67
2023/10/19 12:04:48;;;;;;;1999.90;999.90;;;;;;;;;;4936238;29;20285;-68
2023/10/19 12:07:34;;;;;;;1999.90;999.90;;;;;;;;;;4935885;29;20217;-67
2023/10/19 12:10:25;;;;;;;1999.90;999.90;;;;;;;;;;4934878;29;20431;-68
2023/10/19 12:13:10;;;;;;;1999.90;999.90;;;;;;;;;;4936090;29;20213;-67
2023/10/19 12:15:55;;;;;;;1999.90;999.90;;;;;;;;;;4935919;29;20615;-68
2023/10/19 12:18:41;;;;;;;1999.90;999.90;;;;;;;;;;4934292;29;20308;-68
2023/10/19 12:21:29;;;;;;;1999.90;999.90;;;;;;;;;;4933630;29;20638;-68
2023/10/19 12:24:18;;;;;;;1999.90;999.90;;;;;;;;;;4935309;29;20212;-67
2023/10/19 12:27:02;;;;;;;1999.90;999.90;;;;;;;;;;4935944;29;20712;-68
2023/10/19 12:29:47;;;;;;;1999.90;999.90;;;;;;;;;;4936277;29;20205;-68
2023/10/19 12:32:32;;;;;;;1999.90;999.90;;;;;;;;;;4934916;29;20419;-68
2023/10/19 12:35:19;;;;;;;1999.90;999.90;;;;;;;;;;4935755;29;20245;-68
2023/10/19 12:38:06;;;;;;;1999.90;999.90;;;;;;;;;;4935538;29;20225;-68
2023/10/19 12:40:52;;;;;;;1999.90;999.90;;;;;;;;;;4935448;29;20357;-70
2023/10/19 12:43:37;;;;;;;1999.90;999.90;;;;;;;;;;4935493;29;20593;-70
2023/10/19 12:46:24;;;;;;;1999.90;999.90;;;;;;;;;;4935296;29;20257;-70
2023/10/19 12:49:14;;;;;;;1999.90;999.90;;;;;;;;;;4935206;29;20277;-70
2023/10/19 12:52:00;;;;;;;1999.90;999.90;;;;;;;;;;4935447;29;20288;-70
2023/10/19 12:54:48;;;;;;;1999.90;999.90;;;;;;;;;;4935307;29;20801;-69
2023/10/19 12:57:34;;;;;;;1999.90;999.90;;;;;;;;;;4943077;29;20631;-69
2023/10/19 13:00:28;;;;;;;1999.90;999.90;;;;;;;;;;4940013;29;20217;-69
2023/10/19 13:03:15;;;;;;;1999.90;999.90;;;;;;;;;;4935228;29;20683;-69
2023/10/19 13:06:03;;;;;;;1999.90;999.90;;;;;;;;;;4935216;29;20277;-70
2023/10/19 13:08:48;;;;;;;1999.90;999.90;;;;;;;;;;4935394;29;20207;-69
2023/10/19 13:11:33;;;;;;;1999.90;999.90;;;;;;;;;;4934138;29;20221;-69
2023/10/19 13:14:19;;;;;;;1999.90;999.90;;;;;;;;;;4933310;29;20353;-69
2023/10/19 13:17:05;;;;;;;1999.90;999.90;;;;;;;;;;4932153;29;20213;-68
2023/10/19 13:19:51;;;;;;;1999.90;999.90;;;;;;;;;;4935035;29;20737;-69
2023/10/19 13:22:36;;;;;;;1999.90;999.90;;;;;;;;;;4935156;29;20780;-69
2023/10/19 13:25:38;;;;;;;1999.90;999.90;;;;;;;;;;4934900;29;20244;-69
2023/10/19 13:28:23;;;;;;;1999.90;999.90;;;;;;;;;;4932558;29;21034;-69
2023/10/19 13:31:09;;;;;;;1999.90;999.90;;;;;;;;;;4930616;29;20257;-69
2023/10/19 13:33:55;;;;;;;1999.90;999.90;;;;;;;;;;4938058;29;20213;-69
2023/10/19 13:36:39;;;;;;;1999.90;999.90;;;;;;;;;;4938668;29;20353;-70
2023/10/19 13:39:25;;;;;;;1999.90;999.90;;;;;;;;;;4937724;29;20708;-69
2023/10/19 13:42:09;;;;;;;1999.90;999.90;;;;;;;;;;4939720;29;20227;-68
2023/10/19 13:44:56;;;;;;;1999.90;999.90;;;;;;;;;;4920804;29;20237;-70
2023/10/19 13:47:42;;;;;;;1999.90;999.90;;;;;;;;;;4943058;29;20719;-69
2023/10/19 13:50:27;;;;;;;1999.90;999.90;;;;;;;;;;4946757;29;21038;-70
2023/10/19 13:53:12;;;;;;;1999.90;999.90;;;;;;;;;;4942703;29;20277;-69
2023/10/19 13:55:57;;;;;;;1999.90;999.90;;;;;;;;;;4932685;29;20240;-69
2023/10/19 13:58:42;;;;;;;1999.90;999.90;;;;;;;;;;4942954;29;20225;-69
2023/10/19 14:01:28;;;;;;;1999.90;999.90;;;;;;;;;;4929792;29;20292;-69
2023/10/19 14:04:15;;;;;;;1999.90;999.90;;;;;;;;;;4938700;29;20225;-69
2023/10/19 14:07:00;;;;;;;1999.90;999.90;;;;;;;;;;4938650;29;20212;-69
2023/10/19 14:09:45;;;;;;;1999.90;999.90;;;;;;;;;;4934589;29;20697;-69
2023/10/19 14:12:31;;;;;;;1999.90;999.90;;;;;;;;;;4942331;29;20261;-70
2023/10/19 14:15:17;;;;;;;1999.90;999.90;;;;;;;;;;4933639;29;20380;-68
2023/10/19 14:18:02;;;;;;;1999.90;999.90;;;;;;;;;;4946563;29;20212;-69
2023/10/19 14:20:48;;;;;;;1999.90;999.90;;;;;;;;;;4941610;29;20346;-69
2023/10/19 14:23:35;;;;;;;1999.90;999.90;;;;;;;;;;4937202;29;20210;-69
2023/10/19 14:26:20;;;;;;;1999.90;999.90;;;;;;;;;;4941669;29;20752;-69
2023/10/19 14:29:04;;;;;;;1999.90;999.90;;;;;;;;;;4918098;29;20214;-69
2023/10/19 14:31:49;;;;;;;1999.90;999.90;;;;;;;;;;4934277;29;20217;-68
2023/10/19 14:34:34;;;;;;;1999.90;999.90;;;;;;;;;;4931894;29;20694;-69
2023/10/19 14:37:20;;;;;;;1999.90;999.90;;;;;;;;;;4938941;29;20638;-67
2023/10/19 14:40:10;;;;;;;1999.90;999.90;;;;;;;;;;4927464;29;20464;-69
2023/10/19 14:42:55;;;;;;;1999.90;999.90;;;;;;;;;;4942021;29;20306;-68
2023/10/19 14:45:41;;;;;;;1999.90;999.90;;;;;;;;;;4932314;29;20580;-70
2023/10/19 14:48:26;;;;;;;1999.90;999.90;;;;;;;;;;4941356;29;20217;-70
2023/10/19 14:51:11;;;;;;;1999.90;999.90;;;;;;;;;;4942786;29;20220;-68
2023/10/19 14:53:58;;;;;;;1999.90;999.90;;;;;;;;;;4934909;29;20234;-70
2023/10/19 14:56:43;;;;;;;1999.90;999.90;;;;;;;;;;4936816;29;20306;-69
2023/10/19 14:59:27;;;;;;;1999.90;999.90;;;;;;;;;;4939523;29;20233;-70
2023/10/19 15:02:13;;;;;;;1999.90;999.90;;;;;;;;;;4939712;29;20213;-69
2023/10/19 15:04:58;;;;;;;1999.90;999.90;;;;;;;;;;4934845;29;20439;-69
2023/10/19 15:07:43;;;;;;;1999.90;999.90;;;;;;;;;;4943039;29;20213;-70
2023/10/19 15:10:29;;;;;;;1999.90;999.90;;;;;;;;;;4936513;29;20217;-69
2023/10/19 15:13:15;;;;;;;1999.90;999.90;;;;;;;;;;4949477;29;20545;-70
2023/10/19 15:16:07;;;;;;;1999.90;999.90;;;;;;;;;;4931774;29;20232;-69
2023/10/19 15:18:53;;;;;;;1999.90;999.90;;;;;;;;;;4935943;29;20332;-69
2023/10/19 15:21:37;;;;;;;1999.90;999.90;;;;;;;;;;4944389;29;20297;-70
2023/10/19 15:24:22;;;;;;;1999.90;999.90;;;;;;;;;;4937009;29;20693;-70
2023/10/19 15:27:09;;;;;;;1999.90;999.90;;;;;;;;;;4941424;29;20209;-69
2023/10/19 15:29:53;;;;;;;1999.90;999.90;;;;;;;;;;4934939;29;20810;-69
2023/10/19 15:32:41;;;;;;;1999.90;999.90;;;;;;;;;;4945107;29;20216;-70
2023/10/19 15:35:27;;;;;;;1999.90;999.90;;;;;;;;;;4936523;29;20260;-69
2023/10/19 15:38:12;;;;;;;1999.90;999.90;;;;;;;;;;4930311;29;20213;-71
2023/10/19 15:40:57;;;;;;;1999.90;999.90;;;;;;;;;;4936892;29;20221;-70
2023/10/19 15:43:43;;;;;;;1999.90;999.90;;;;;;;;;;4936837;29;20275;-69
2023/10/19 15:46:29;;;;;;;1999.90;999.90;;;;;;;;;;4935114;29;20248;-68
2023/10/19 15:49:14;;;;;;;1999.90;999.90;;;;;;;;;;4929621;29;20209;-69
2023/10/19 15:51:59;;;;;;;1999.90;999.90;;;;;;;;;;4938696;29;20214;-70
2023/10/19 15:54:44;;;;;;;1999.90;999.90;;;;;;;;;;4938138;29;20319;-69
2023/10/19 15:57:30;;;;;;;1999.90;999.90;;;;;;;;;;4937476;29;20212;-68
2023/10/19 16:00:17;;;;;;;1999.90;999.90;;;;;;;;;;4936878;29;20269;-69
2023/10/19 16:03:03;;;;;;;1999.90;999.90;;;;;;;;;;4937174;29;20236;-69
2023/10/19 16:05:48;;;;;;;1999.90;999.90;;;;;;;;;;4943576;28;20241;-70
2023/10/19 16:08:33;;;;;;;1999.90;999.90;;;;;;;;;;4932345;29;20217;-70
2023/10/19 16:11:17;;;;;;;1999.90;999.90;;;;;;;;;;4938641;29;20318;-68
2023/10/19 16:14:03;;;;;;;1999.90;999.90;;;;;;;;;;4934787;29;20201;-68
2023/10/19 16:16:49;;;;;;;1999.90;999.90;;;;;;;;;;4943275;29;20594;-69
2023/10/19 16:19:34;;;;;;;1999.90;999.90;;;;;;;;;;4934064;29;20748;-69
2023/10/19 16:22:19;;;;;;;1999.90;999.90;;;;;;;;;;4934928;29;20212;-69
2023/10/19 16:25:04;;;;;;;1999.90;999.90;;;;;;;;;;4937962;29;20240;-69
2023/10/19 16:27:49;;;;;;;1999.90;999.90;;;;;;;;;;4937387;29;20616;-69
2023/10/19 16:30:35;;;;;;;1999.90;999.90;;;;;;;;;;4941786;29;20416;-70
2023/10/19 16:33:21;;;;;;;1999.90;999.90;;;;;;;;;;4921629;29;20228;-69
2023/10/19 16:36:06;;;;;;;1999.90;999.90;;;;;;;;;;4942538;28;20233;-69
2023/10/19 16:38:51;;;;;;;1999.90;999.90;;;;;;;;;;4940719;29;20220;-71
2023/10/19 16:41:36;;;;;;;1999.90;999.90;;;;;;;;;;4935209;29;20216;-68
2023/10/19 16:44:21;;;;;;;1999.90;999.90;;;;;;;;;;4935401;29;20357;-69
2023/10/19 16:47:06;;;;;;;1999.90;999.90;;;;;;;;;;4935524;29;20213;-69
2023/10/19 16:49:52;;;;;;;1999.90;999.90;;;;;;;;;;4935346;29;20216;-69
2023/10/19 16:52:37;;;;;;;1999.90;999.90;;;;;;;;;;4934388;29;20213;-66
2023/10/19 16:55:22;;;;;;;1999.90;999.90;;;;;;;;;;4935179;29;20233;-68
2023/10/19 16:58:07;;;;;;;1999.90;999.90;;;;;;;;;;4933887;29;20353;-68
2023/10/19 17:00:52;;;;;;;1999.90;999.90;;;;;;;;;;4934813;29;20255;-68
2023/10/19 17:03:38;;;;;;;1999.90;999.90;;;;;;;;;;4934255;29;20894;-67
2023/10/19 17:06:25;;;;;;;1999.90;999.90;;;;;;;;;;4934820;29;20329;-67
2023/10/19 17:09:11;;;;;;;1999.90;999.90;;;;;;;;;;4934874;29;20212;-67
2023/10/19 17:11:56;;;;;;;1999.90;999.90;;;;;;;;;;4933850;29;20316;-67
2023/10/19 17:14:41;;;;;;;1999.90;999.90;;;;;;;;;;4930574;29;20715;-68
2023/10/19 17:17:27;;;;;;;1999.90;999.90;;;;;;;;;;4929182;29;20578;-68
2023/10/19 17:20:12;;;;;;;1999.90;999.90;;;;;;;;;;4934661;29;20225;-67
2023/10/19 17:22:59;;;;;;;1999.90;999.90;;;;;;;;;;4933260;29;20249;-67
2023/10/19 17:25:46;;;;;;;1999.90;999.90;;;;;;;;;;4932603;29;20505;-67
2023/10/19 17:28:31;;;;;;;1999.90;999.90;;;;;;;;;;4934522;29;20265;-68
2023/10/19 17:31:16;;;;;;;1999.90;999.90;;;;;;;;;;4931471;29;20306;-67
2023/10/19 17:34:01;;;;;;;1999.90;999.90;;;;;;;;;;4940165;29;20321;-68
2023/10/19 17:36:47;;;;;;;1999.90;999.90;;;;;;;;;;4934498;29;20600;-68
2023/10/19 17:39:34;;;;;;;1999.90;999.90;;;;;;;;;;4932479;29;20230;-68
2023/10/19 17:42:19;;;;;;;1999.90;999.90;;;;;;;;;;4931240;29;20334;-67
2023/10/19 17:45:04;;;;;;;1999.90;999.90;;;;;;;;;;4942416;29;20241;-67
2023/10/19 17:47:50;;;;;;;1999.90;999.90;;;;;;;;;;4939234;29;20779;-68
2023/10/19 17:50:35;;;;;;;1999.90;999.90;;;;;;;;;;4935107;29;20635;-67
2023/10/19 17:53:20;;;;;;;1999.90;999.90;;;;;;;;;;4927418;29;20225;-68
2023/10/19 17:56:07;;;;;;;1999.90;999.90;;;;;;;;;;4934136;29;20729;-68
2023/10/19 17:58:53;;;;;;;1999.90;999.90;;;;;;;;;;4931562;29;20213;-68
2023/10/19 18:01:41;;;;;;;1999.90;999.90;;;;;;;;;;4937664;29;20205;-68
2023/10/19 18:04:26;;;;;;;1999.90;999.90;;;;;;;;;;4927911;29;20213;-68
2023/10/19 18:07:11;;;;;;;1999.90;999.90;;;;;;;;;;4935200;29;20357;-67